createdAt,value
2022-12-03T00:00:56.110Z,2.44
2022-12-03T00:03:58.736Z,2.39
2022-12-03T00:07:01.135Z,2.34
2022-12-03T00:10:05.060Z,2.35
2022-12-03T00:13:08.515Z,2.33
2022-12-03T00:16:10.903Z,2.36
2022-12-03T00:19:13.475Z,2.40
2022-12-03T00:22:15.824Z,2.45
2022-12-03T00:25:18.394Z,2.49
2022-12-03T00:28:20.639Z,2.45
2022-12-03T00:31:23.629Z,2.42
2022-12-03T00:34:26.007Z,2.41
2022-12-03T00:37:28.491Z,2.41
2022-12-03T00:40:30.845Z,2.42
2022-12-03T00:43:33.116Z,2.50
2022-12-03T00:46:35.393Z,2.50
2022-12-03T00:49:37.845Z,2.53
2022-12-03T00:52:40.089Z,2.57
2022-12-03T00:55:42.357Z,2.58
2022-12-03T00:58:44.622Z,2.58
2022-12-03T01:01:46.933Z,2.58
2022-12-03T01:04:49.189Z,2.62
2022-12-03T01:07:51.642Z,2.58
2022-12-03T01:10:53.929Z,2.44
2022-12-03T01:13:56.186Z,2.37
2022-12-03T01:16:58.610Z,2.27
2022-12-03T01:20:01.709Z,2.25
2022-12-03T01:23:04.479Z,2.30
2022-12-03T01:26:06.810Z,2.26
2022-12-03T01:29:09.129Z,2.29
2022-12-03T01:32:17.896Z,2.34
2022-12-03T01:35:20.255Z,2.31
2022-12-03T01:38:22.465Z,2.28
2022-12-03T01:41:25.239Z,2.30
2022-12-03T01:44:34.563Z,2.33
2022-12-03T01:47:38.162Z,2.36
2022-12-03T01:50:40.449Z,2.35
2022-12-03T01:53:44.349Z,2.29
2022-12-03T01:56:47.446Z,2.28
2022-12-03T01:59:50.381Z,2.26
2022-12-03T02:02:58.639Z,2.32
2022-12-03T02:06:01.002Z,2.35
2022-12-03T02:09:03.470Z,2.39
2022-12-03T02:12:06.232Z,2.43
2022-12-03T02:15:10.285Z,2.40
2022-12-03T02:18:12.841Z,2.38
2022-12-03T02:21:35.514Z,2.44
2022-12-03T02:24:48.667Z,2.40
2022-12-03T02:27:53.344Z,2.39
2022-12-03T02:30:56.128Z,2.38
2022-12-03T02:33:58.449Z,2.38
2022-12-03T02:37:01.347Z,2.41
2022-12-03T02:40:10.617Z,2.42
2022-12-03T02:43:16.580Z,2.40
2022-12-03T02:46:18.891Z,2.29
2022-12-03T02:49:21.432Z,2.24
2022-12-03T02:52:24.190Z,2.22
2022-12-03T02:55:30.781Z,2.32
2022-12-03T02:58:38.118Z,2.36
2022-12-03T03:01:40.489Z,2.32
2022-12-03T03:04:43.842Z,2.39
2022-12-03T03:07:46.544Z,2.41
2022-12-03T03:10:49.786Z,2.47
2022-12-03T03:13:52.032Z,2.44
2022-12-03T03:16:57.385Z,2.45
2022-12-03T03:19:59.865Z,2.47
2022-12-03T03:23:13.288Z,2.50
2022-12-03T03:26:16.694Z,2.49
2022-12-03T03:29:19.399Z,2.54
2022-12-03T03:32:21.678Z,2.54
2022-12-03T03:35:25.154Z,2.54
2022-12-03T03:38:29.849Z,2.55
2022-12-03T03:41:33.229Z,2.56
2022-12-03T03:44:35.860Z,2.58
2022-12-03T03:47:38.575Z,2.58
2022-12-03T03:50:42.161Z,2.60
2022-12-03T03:53:49.805Z,2.65
2022-12-03T03:56:52.368Z,2.66
2022-12-03T03:59:54.611Z,2.67
2022-12-03T04:02:56.983Z,2.68
2022-12-03T04:05:59.290Z,2.61
2022-12-03T04:09:01.613Z,2.66
2022-12-03T04:12:22.529Z,2.68
2022-12-03T04:15:25.548Z,2.68
2022-12-03T04:18:43.058Z,2.69
2022-12-03T04:22:04.159Z,2.68
2022-12-03T04:25:34.275Z,2.69
2022-12-03T04:28:51.364Z,2.76
2022-12-03T04:32:12.345Z,2.72
2022-12-03T04:35:33.711Z,2.68
2022-12-03T04:38:36.061Z,2.71
2022-12-03T04:41:38.300Z,2.71
2022-12-03T04:44:40.688Z,2.72
2022-12-03T04:47:44.768Z,2.74
2022-12-03T04:50:47.106Z,2.78
2022-12-03T04:53:49.337Z,2.75
2022-12-03T04:56:51.691Z,2.67
2022-12-03T04:59:53.894Z,2.70
2022-12-03T05:02:56.148Z,2.62
2022-12-03T05:05:58.492Z,2.59
2022-12-03T05:09:02.144Z,2.66
2022-12-03T05:12:04.769Z,2.74
2022-12-03T05:15:07.460Z,2.63
2022-12-03T05:18:09.734Z,2.68
2022-12-03T05:21:12.238Z,2.59
2022-12-03T05:24:14.559Z,2.57
2022-12-03T05:27:23.133Z,2.48
2022-12-03T05:30:26.474Z,2.44
2022-12-03T05:33:28.753Z,2.42
2022-12-03T05:36:30.995Z,2.41
2022-12-03T05:39:33.265Z,2.44
2022-12-03T05:42:53.934Z,2.39
2022-12-03T05:45:56.299Z,2.43
2022-12-03T05:48:58.635Z,2.40
2022-12-03T05:52:00.954Z,2.43
2022-12-03T05:55:04.620Z,2.42
2022-12-03T05:58:07.206Z,2.46
2022-12-03T06:01:09.486Z,2.48
2022-12-03T06:04:12.074Z,2.48
2022-12-03T06:07:14.539Z,2.50
2022-12-03T06:10:20.851Z,2.51
2022-12-03T06:13:23.139Z,2.58
2022-12-03T06:16:25.624Z,2.61
2022-12-03T06:19:27.955Z,2.63
2022-12-03T06:22:30.170Z,2.71
2022-12-03T06:25:32.569Z,2.76
2022-12-03T06:28:34.810Z,2.78
2022-12-03T06:31:37.137Z,2.85
2022-12-03T06:34:39.482Z,2.88
2022-12-03T06:37:41.766Z,2.91
2022-12-03T06:40:44.034Z,2.94
2022-12-03T06:43:46.847Z,2.94
2022-12-03T06:46:49.268Z,2.93
2022-12-03T06:49:51.591Z,2.98
2022-12-03T06:52:53.963Z,2.92
2022-12-03T06:55:56.277Z,2.97
2022-12-03T06:58:58.676Z,3.03
2022-12-03T07:02:01.277Z,3.08
2022-12-03T07:05:04.335Z,3.14
2022-12-03T07:08:07.142Z,3.18
2022-12-03T07:11:28.198Z,3.21
2022-12-03T07:14:30.498Z,3.30
2022-12-03T07:17:32.738Z,3.35
2022-12-03T07:20:35.014Z,3.42
2022-12-03T07:23:37.731Z,3.46
2022-12-03T07:26:40.110Z,3.47
2022-12-03T07:29:42.485Z,3.45
2022-12-03T07:32:44.769Z,3.51
2022-12-03T07:35:47.021Z,3.51
2022-12-03T07:38:49.360Z,3.51
2022-12-03T07:41:51.637Z,3.49
2022-12-03T07:44:54.958Z,3.53
2022-12-03T07:47:58.014Z,3.54
2022-12-03T07:51:00.376Z,3.56
2022-12-03T07:54:02.682Z,3.58
2022-12-03T07:57:05.014Z,3.59
2022-12-03T08:00:08.879Z,3.66
2022-12-03T08:03:11.211Z,3.70
2022-12-03T08:06:13.696Z,3.78
2022-12-03T08:09:16.589Z,3.87
2022-12-03T08:12:40.243Z,3.97
2022-12-03T08:15:43.221Z,4.09
2022-12-03T08:18:47.102Z,4.11
2022-12-03T08:21:49.558Z,4.13
2022-12-03T08:24:52.071Z,4.17
2022-12-03T08:28:00.448Z,4.18
2022-12-03T08:31:20.089Z,4.30
2022-12-03T08:34:31.921Z,4.40
2022-12-03T08:37:36.164Z,4.58
2022-12-03T08:40:43.898Z,4.69
2022-12-03T08:43:46.509Z,4.76
2022-12-03T08:47:21.364Z,4.89
2022-12-03T08:50:31.550Z,4.96
2022-12-03T08:53:36.945Z,5.03
2022-12-03T08:56:39.289Z,5.27
2022-12-03T08:59:45.505Z,5.59
2022-12-03T09:02:51.346Z,5.59
2022-12-03T09:05:53.685Z,5.51
2022-12-03T09:08:56.235Z,5.62
2022-12-03T09:11:58.828Z,5.63
2022-12-03T09:15:01.127Z,5.83
2022-12-03T09:18:03.651Z,5.94
2022-12-03T09:21:06.543Z,6.19
2022-12-03T09:24:12.028Z,6.41
2022-12-03T09:27:14.381Z,6.65
2022-12-03T09:30:17.238Z,6.84
2022-12-03T09:33:21.539Z,7.10
2022-12-03T09:36:23.873Z,7.12
2022-12-03T09:39:26.471Z,7.23
2022-12-03T09:42:28.767Z,7.14
2022-12-03T09:45:31.150Z,7.01
2022-12-03T09:48:33.557Z,7.00
2022-12-03T09:51:36.772Z,7.14
2022-12-03T09:54:42.808Z,7.36
2022-12-03T09:57:48.278Z,7.44
2022-12-03T10:00:52.599Z,7.38
2022-12-03T10:03:54.984Z,7.45
2022-12-03T10:06:59.074Z,7.51
2022-12-03T10:10:01.598Z,7.47
2022-12-03T10:13:07.332Z,7.48
2022-12-03T10:16:13.437Z,7.73
2022-12-03T10:19:26.117Z,8.37
2022-12-03T10:22:28.624Z,8.91
2022-12-03T10:25:30.993Z,9.60
2022-12-03T10:28:43.713Z,9.62
2022-12-03T10:31:54.342Z,9.67
2022-12-03T10:35:16.238Z,10.56
2022-12-03T10:38:20.018Z,9.90
2022-12-03T10:41:28.155Z,8.94
2022-12-03T10:44:30.718Z,8.31
2022-12-03T10:47:33.182Z,8.17
2022-12-03T10:50:36.309Z,8.50
2022-12-03T10:53:40.667Z,8.73
2022-12-03T10:56:43.900Z,9.15
2022-12-03T10:59:46.865Z,9.23
2022-12-03T11:02:54.819Z,9.27
2022-12-03T11:06:01.001Z,9.03
2022-12-03T11:09:08.826Z,8.72
2022-12-03T11:12:24.717Z,8.47
2022-12-03T11:15:43.946Z,8.41
2022-12-03T11:18:58.375Z,8.50
2022-12-03T11:22:04.940Z,8.80
2022-12-03T11:25:25.478Z,9.24
2022-12-03T11:28:27.723Z,9.48
2022-12-03T11:31:37.517Z,9.84
2022-12-03T11:34:40.677Z,9.84
2022-12-03T11:37:43.067Z,9.76
2022-12-03T11:41:08.184Z,9.54
2022-12-03T11:44:31.504Z,9.18
2022-12-03T11:47:39.079Z,9.07
2022-12-03T11:50:44.902Z,9.02
2022-12-03T11:53:47.870Z,8.73
2022-12-03T11:56:52.289Z,8.60
2022-12-03T12:00:07.321Z,8.53
2022-12-03T12:03:23.079Z,8.55
2022-12-03T12:06:25.531Z,8.57
2022-12-03T12:09:56.005Z,8.36
2022-12-03T12:12:58.422Z,8.37
2022-12-03T12:16:02.988Z,8.45
2022-12-03T12:19:27.997Z,8.60
2022-12-03T12:22:31.379Z,8.62
2022-12-03T12:25:40.355Z,8.43
2022-12-03T12:28:42.706Z,8.32
2022-12-03T12:31:47.319Z,8.34
2022-12-03T12:34:57.957Z,8.35
2022-12-03T12:38:14.747Z,8.37
2022-12-03T12:41:17.214Z,8.16
2022-12-03T12:44:23.245Z,8.08
2022-12-03T12:47:26.050Z,7.95
2022-12-03T12:50:28.423Z,7.83
2022-12-03T12:53:34.140Z,7.72
2022-12-03T12:56:36.781Z,7.55
2022-12-03T12:59:39.309Z,7.46
2022-12-03T13:03:00.026Z,7.39
2022-12-03T13:06:03.278Z,7.27
2022-12-03T13:09:12.949Z,7.19
2022-12-03T13:12:21.889Z,7.16
2022-12-03T13:15:42.497Z,7.15
2022-12-03T13:18:53.324Z,7.07
2022-12-03T13:21:58.645Z,7.05
2022-12-03T13:25:44.038Z,7.15
2022-12-03T13:28:45.563Z,7.17
2022-12-03T13:31:58.037Z,7.11
2022-12-03T13:35:06.515Z,7.04
2022-12-03T13:38:16.946Z,7.08
2022-12-03T13:41:40.033Z,7.04
2022-12-03T13:44:49.018Z,7.04
2022-12-03T13:48:24.923Z,6.98
2022-12-03T13:51:32.654Z,6.91
2022-12-03T13:54:37.951Z,6.87
2022-12-03T13:57:40.357Z,6.76
2022-12-03T14:00:42.778Z,6.80
2022-12-03T14:03:45.207Z,6.78
2022-12-03T14:06:47.585Z,6.76
2022-12-03T14:09:49.852Z,6.72
2022-12-03T14:12:52.156Z,6.69
2022-12-03T14:15:54.440Z,6.62
2022-12-03T14:18:56.729Z,6.59
2022-12-03T14:22:00.242Z,6.56
2022-12-03T14:25:02.564Z,6.54
2022-12-03T14:28:08.732Z,6.47
2022-12-03T14:31:12.593Z,6.48
2022-12-03T14:34:14.912Z,6.44
2022-12-03T14:37:17.626Z,6.37
2022-12-03T14:40:22.189Z,6.33
2022-12-03T14:43:25.250Z,6.29
2022-12-03T14:46:27.607Z,6.28
2022-12-03T14:49:30.106Z,6.26
2022-12-03T14:52:32.794Z,6.20
2022-12-03T14:55:35.044Z,6.15
2022-12-03T14:58:37.385Z,6.09
2022-12-03T15:01:39.784Z,6.02
2022-12-03T15:04:42.239Z,5.95
2022-12-03T15:07:44.617Z,5.88
2022-12-03T15:10:46.988Z,5.80
2022-12-03T15:13:49.481Z,5.72
2022-12-03T15:16:51.916Z,5.71
2022-12-03T15:19:54.390Z,5.65
2022-12-03T15:22:56.863Z,5.58
2022-12-03T15:25:59.398Z,5.71
2022-12-03T15:29:01.671Z,5.60
2022-12-03T15:32:03.966Z,5.52
2022-12-03T15:35:06.963Z,5.50
2022-12-03T15:38:10.138Z,5.43
2022-12-03T15:41:21.700Z,5.33
2022-12-03T15:44:23.951Z,5.22
2022-12-03T15:47:26.406Z,5.12
2022-12-03T15:50:28.736Z,5.05
2022-12-03T15:53:31.036Z,4.99
2022-12-03T15:56:37.600Z,4.90
2022-12-03T15:59:40.010Z,4.82
2022-12-03T16:02:45.103Z,4.74
2022-12-03T16:05:51.449Z,4.63
2022-12-03T16:08:53.688Z,4.56
2022-12-03T16:11:56.135Z,4.40
2022-12-03T16:14:58.419Z,4.29
2022-12-03T16:18:01.154Z,4.29
2022-12-03T16:21:03.549Z,4.26
2022-12-03T16:24:06.115Z,4.23
2022-12-03T16:27:08.897Z,4.22
2022-12-03T16:30:11.757Z,4.16
2022-12-03T16:33:14.057Z,4.13
2022-12-03T16:36:16.654Z,4.03
2022-12-03T16:39:19.352Z,3.90
2022-12-03T16:42:21.701Z,3.83
2022-12-03T16:45:29.653Z,3.76
2022-12-03T16:48:31.976Z,3.69
2022-12-03T16:51:34.198Z,3.69
2022-12-03T16:54:36.598Z,3.62
2022-12-03T16:57:38.874Z,3.61
2022-12-03T17:00:41.152Z,3.66
2022-12-03T17:03:43.483Z,3.70
2022-12-03T17:06:46.794Z,3.71
2022-12-03T17:09:49.259Z,3.73
2022-12-03T17:16:14.307Z,3.70
2022-12-03T17:19:17.391Z,3.77
2022-12-03T17:22:19.711Z,3.80
2022-12-03T17:25:22.159Z,3.77
2022-12-03T17:28:24.393Z,3.72
2022-12-03T17:31:26.686Z,3.66
2022-12-03T17:34:29.027Z,3.59
2022-12-03T17:37:31.282Z,3.53
2022-12-03T17:40:33.549Z,3.48
2022-12-03T17:43:35.897Z,3.44
2022-12-03T17:46:38.323Z,3.42
2022-12-03T17:49:40.670Z,3.45
2022-12-03T17:52:43.016Z,3.41
2022-12-03T17:55:47.013Z,3.36
2022-12-03T17:58:49.326Z,3.28
2022-12-03T18:01:51.691Z,3.17
2022-12-03T18:04:54.060Z,3.15
2022-12-03T18:07:56.530Z,3.09
2022-12-03T18:10:58.811Z,3.02
2022-12-03T18:14:01.501Z,2.97
2022-12-03T18:17:03.756Z,2.92
2022-12-03T18:20:07.347Z,2.87
2022-12-03T18:23:09.814Z,2.81
2022-12-03T18:26:12.203Z,2.79
2022-12-03T18:29:14.509Z,2.75
2022-12-03T18:32:28.443Z,2.67
2022-12-03T18:35:31.774Z,2.59
2022-12-03T18:38:34.214Z,2.59
2022-12-03T18:41:36.865Z,2.63
2022-12-03T18:44:39.098Z,2.59
2022-12-03T18:47:41.477Z,2.59
2022-12-03T18:50:45.282Z,2.66
2022-12-03T18:53:48.356Z,2.70
2022-12-03T18:56:50.904Z,2.71
2022-12-03T18:59:53.538Z,2.72
2022-12-03T19:03:04.309Z,2.71
2022-12-03T19:06:17.090Z,2.72
2022-12-03T19:09:21.048Z,2.82
2022-12-03T19:12:23.527Z,2.81
2022-12-03T19:15:25.904Z,2.76
2022-12-03T19:18:28.207Z,2.73
2022-12-03T19:21:33.694Z,2.76
2022-12-03T19:24:36.315Z,2.80
2022-12-03T19:27:38.601Z,2.67
2022-12-03T19:30:40.855Z,2.60
2022-12-03T19:33:44.262Z,2.54
2022-12-03T19:36:47.536Z,2.50
2022-12-03T19:39:54.227Z,2.51
2022-12-03T19:42:56.897Z,2.51
2022-12-03T19:46:07.062Z,2.62
2022-12-03T19:49:10.896Z,2.64
2022-12-03T19:52:13.130Z,2.69
2022-12-03T19:55:19.492Z,2.68
2022-12-03T19:58:22.150Z,2.66
2022-12-03T20:01:30.138Z,2.62
2022-12-03T20:04:32.542Z,2.59
2022-12-03T20:07:34.867Z,2.55
2022-12-03T20:10:40.754Z,2.45
2022-12-03T20:13:44.009Z,2.57
2022-12-03T20:16:47.635Z,2.65
2022-12-03T20:19:49.938Z,2.68
2022-12-03T20:22:52.305Z,2.67
2022-12-03T20:25:55.077Z,2.64
2022-12-03T20:28:58.332Z,2.70
2022-12-03T20:32:01.155Z,2.73
2022-12-03T20:35:04.078Z,2.74
2022-12-03T20:38:06.436Z,2.78
2022-12-03T20:41:12.933Z,2.81
2022-12-03T20:44:15.355Z,2.77
2022-12-03T20:47:17.715Z,2.70
2022-12-03T20:50:19.950Z,2.72
2022-12-03T20:53:25.079Z,2.70
2022-12-03T20:56:34.270Z,2.73
2022-12-03T20:59:36.583Z,2.71
2022-12-03T21:02:39.010Z,2.76
2022-12-03T21:05:43.962Z,2.72
2022-12-03T21:08:46.567Z,2.65
2022-12-03T21:11:48.884Z,2.67
2022-12-03T21:14:51.144Z,2.66
2022-12-03T21:17:53.519Z,2.61
2022-12-03T21:20:55.927Z,2.51
2022-12-03T21:23:58.691Z,2.54
2022-12-03T21:27:01.074Z,2.61
2022-12-03T21:30:03.776Z,2.55
2022-12-03T21:33:07.050Z,2.58
2022-12-03T21:36:10.535Z,2.53
2022-12-03T21:39:12.867Z,2.53
2022-12-03T21:42:34.882Z,2.57
2022-12-03T21:45:40.638Z,2.64
2022-12-03T21:48:46.164Z,2.67
2022-12-03T21:51:48.785Z,2.71
2022-12-03T21:54:54.296Z,2.71
2022-12-03T21:57:56.655Z,2.74
2022-12-03T22:00:59.081Z,2.79
2022-12-03T22:04:01.421Z,2.85
2022-12-03T22:07:04.701Z,2.86
2022-12-03T22:10:09.638Z,2.94
2022-12-03T22:13:12.267Z,3.04
2022-12-03T22:16:20.463Z,3.15
2022-12-03T22:19:24.046Z,3.22
2022-12-03T22:22:26.608Z,3.25
2022-12-03T22:25:30.509Z,3.25
2022-12-03T22:28:34.368Z,3.28
2022-12-03T22:31:36.739Z,3.32
2022-12-03T22:34:43.744Z,3.36
2022-12-03T22:37:48.428Z,3.34
2022-12-03T22:40:50.929Z,3.34
2022-12-03T22:43:53.429Z,3.38
2022-12-03T22:46:55.846Z,3.39
2022-12-03T22:49:58.168Z,3.39
2022-12-03T22:53:00.486Z,3.36
2022-12-03T22:56:03.060Z,3.37
2022-12-03T22:59:06.070Z,3.42
2022-12-03T23:02:08.330Z,3.45
2022-12-03T23:05:10.639Z,3.46
2022-12-03T23:08:16.079Z,3.47
2022-12-03T23:11:19.598Z,3.57
2022-12-03T23:14:21.927Z,3.55
2022-12-03T23:17:24.218Z,3.59
2022-12-03T23:20:26.831Z,3.63
2022-12-03T23:23:29.148Z,3.66
2022-12-03T23:26:35.259Z,3.62
2022-12-03T23:29:37.504Z,3.57
2022-12-03T23:32:39.935Z,3.44
2022-12-03T23:35:42.308Z,3.40
2022-12-03T23:38:44.888Z,3.35
2022-12-03T23:41:50.857Z,3.24
2022-12-03T23:44:53.112Z,3.19
2022-12-03T23:47:58.316Z,3.07
2022-12-03T23:51:06.170Z,2.94
2022-12-03T23:54:09.753Z,2.80
2022-12-03T23:57:12.773Z,2.81
